In Rescue
 
Open Full Screen Window  High Contrast Mode
Wind Gusting 00 knots
05
March 31, 2020 3:43 PM CDT
Weather Information
Wind Direction
  070 °
Wind Speed
  05 kt (6 mph)
Wind Gust
  00 kt (0 mph)
Altimeter
30.06 in
Visibility
10 SM
Temperature
10° C
50° F
Dewpoint
00° C
32° F
Humidity
50%
1hr Rain Fall
00.00 in.
24hr Rain Fall
00.00 in.
Sky Condition
Scattered @ 4,700 ft
VFR

METAR KONA 312043Z AUTO 07005KT 10SM SCT047 10/00 A3006 RMK AO2

FAA Disclaimer: The data displayed is for advisory purposes only and is not to be used for flight planning or operations.